createdAt,value
2019-05-30T00:00:38.368Z,11.22
2019-05-30T00:03:09.570Z,11.20
2019-05-30T00:05:39.731Z,11.18
2019-05-30T00:08:13.225Z,11.18
2019-05-30T00:10:43.370Z,11.14
2019-05-30T00:13:13.396Z,11.06
2019-05-30T00:15:43.542Z,11.07
2019-05-30T00:18:13.508Z,11.05
2019-05-30T00:20:43.851Z,11.05
2019-05-30T00:23:14.928Z,11.02
2019-05-30T00:25:44.942Z,10.97
2019-05-30T00:28:15.311Z,10.96
2019-05-30T00:30:45.268Z,10.94
2019-05-30T00:33:18.075Z,10.95
2019-05-30T00:35:47.954Z,10.94
2019-05-30T00:38:18.055Z,10.29
2019-05-30T00:40:48.229Z,10.92
2019-05-30T00:43:18.311Z,10.91
2019-05-30T00:45:48.423Z,10.86
2019-05-30T00:48:18.392Z,10.85
2019-05-30T00:50:50.522Z,10.87
2019-05-30T00:53:20.881Z,10.86
2019-05-30T00:55:56.599Z,10.85
2019-05-30T00:58:26.981Z,10.80
2019-05-30T01:00:59.054Z,10.86
2019-05-30T01:03:30.170Z,10.83
2019-05-30T01:06:00.814Z,10.88
2019-05-30T01:08:32.264Z,10.86
2019-05-30T01:11:03.201Z,10.83
2019-05-30T01:13:33.579Z,10.84
2019-05-30T01:16:03.421Z,10.81
2019-05-30T01:18:33.670Z,10.80
2019-05-30T01:21:03.702Z,10.79
2019-05-30T01:23:33.642Z,10.73
2019-05-30T01:26:03.716Z,10.70
2019-05-30T01:28:33.563Z,10.70
2019-05-30T01:31:11.010Z,10.67
2019-05-30T01:33:38.638Z,10.68
2019-05-30T01:36:08.501Z,10.60
2019-05-30T01:38:38.691Z,10.62
2019-05-30T01:41:08.707Z,10.65
2019-05-30T01:43:38.704Z,10.59
2019-05-30T01:46:09.071Z,10.59
2019-05-30T01:48:39.126Z,10.57
2019-05-30T01:51:09.061Z,10.58
2019-05-30T01:53:40.998Z,10.58
2019-05-30T01:56:12.931Z,10.63
2019-05-30T01:58:44.969Z,10.63
2019-05-30T02:01:24.328Z,10.61
2019-05-30T02:03:46.941Z,10.65
2019-05-30T02:06:17.359Z,10.65
2019-05-30T02:08:47.185Z,10.63
2019-05-30T02:11:17.110Z,10.60
2019-05-30T02:13:47.462Z,10.56
2019-05-30T02:16:17.565Z,10.52
2019-05-30T02:18:47.419Z,10.47
2019-05-30T02:21:17.929Z,10.43
2019-05-30T02:23:47.739Z,10.41
2019-05-30T02:26:18.093Z,10.39
2019-05-30T02:28:48.423Z,10.36
2019-05-30T02:31:37.678Z,10.34
2019-05-30T02:33:49.925Z,10.31
2019-05-30T02:36:19.769Z,10.23
2019-05-30T02:38:49.657Z,10.23
2019-05-30T02:41:20.038Z,10.22
2019-05-30T02:43:51.618Z,10.21
2019-05-30T02:46:21.587Z,10.18
2019-05-30T02:48:58.954Z,10.16
2019-05-30T02:51:25.653Z,10.14
2019-05-30T02:53:55.605Z,10.13
2019-05-30T02:56:27.535Z,10.02
2019-05-30T02:58:57.833Z,10.02
2019-05-30T03:01:27.687Z,10.05
2019-05-30T03:03:59.196Z,10.04
2019-05-30T03:06:33.732Z,10.03
2019-05-30T03:09:06.798Z,10.08
2019-05-30T03:11:39.123Z,10.08
2019-05-30T03:14:16.750Z,9.97
2019-05-30T03:16:41.541Z,9.97
2019-05-30T03:19:12.756Z,10.01
2019-05-30T03:21:43.586Z,10.04
2019-05-30T03:24:16.480Z,10.04
2019-05-30T03:26:46.724Z,10.07
2019-05-30T03:29:17.965Z,10.09
2019-05-30T03:31:49.327Z,10.14
2019-05-30T03:34:27.413Z,10.19
2019-05-30T03:36:54.357Z,10.25
2019-05-30T03:39:27.149Z,10.30
2019-05-30T03:41:58.471Z,10.34
2019-05-30T03:44:28.767Z,10.38
2019-05-30T03:47:03.902Z,10.43
2019-05-30T03:49:37.329Z,10.47
2019-05-30T03:52:10.640Z,10.51
2019-05-30T03:54:42.380Z,10.53
2019-05-30T03:57:16.822Z,10.56
2019-05-30T03:59:55.590Z,10.58
2019-05-30T04:02:59.563Z,10.61
2019-05-30T04:05:33.698Z,10.62
2019-05-30T04:08:07.238Z,10.64
2019-05-30T04:10:41.243Z,10.67
2019-05-30T04:13:41.141Z,10.70
2019-05-30T04:16:11.943Z,10.73
2019-05-30T04:18:42.877Z,10.77
2019-05-30T04:21:15.815Z,10.82
2019-05-30T04:23:44.896Z,10.84
2019-05-30T04:26:15.908Z,10.88
2019-05-30T04:28:46.622Z,10.93
2019-05-30T04:31:17.630Z,10.99
2019-05-30T04:33:48.822Z,11.03
2019-05-30T04:36:19.333Z,11.10
2019-05-30T04:38:49.936Z,11.16
2019-05-30T04:41:20.993Z,11.27
2019-05-30T04:43:51.319Z,11.34
2019-05-30T04:46:22.116Z,11.41
2019-05-30T04:48:52.515Z,11.46
2019-05-30T04:51:22.801Z,11.54
2019-05-30T04:53:53.178Z,11.02
2019-05-30T04:56:24.120Z,11.67
2019-05-30T04:58:54.583Z,11.73
2019-05-30T05:01:25.395Z,11.79
2019-05-30T05:03:55.595Z,11.86
2019-05-30T05:06:26.009Z,11.95
2019-05-30T05:08:57.643Z,12.02
2019-05-30T05:11:28.307Z,12.09
2019-05-30T05:13:58.391Z,12.19
2019-05-30T05:16:35.331Z,12.26
2019-05-30T05:19:00.539Z,12.34
2019-05-30T05:21:30.490Z,12.44
2019-05-30T05:24:00.458Z,12.56
2019-05-30T05:26:30.603Z,12.64
2019-05-30T05:29:00.772Z,12.74
2019-05-30T05:31:30.844Z,12.89
2019-05-30T05:34:00.865Z,13.07
2019-05-30T05:36:31.076Z,13.26
2019-05-30T05:39:01.080Z,13.37
2019-05-30T05:41:31.707Z,13.55
2019-05-30T05:44:03.252Z,13.69
2019-05-30T05:46:33.617Z,13.83
2019-05-30T05:49:04.223Z,13.97
2019-05-30T05:51:34.282Z,14.11
2019-05-30T05:54:07.811Z,14.19
2019-05-30T05:56:37.811Z,14.26
2019-05-30T05:59:08.160Z,14.34
2019-05-30T06:01:38.271Z,14.45
2019-05-30T06:04:13.009Z,14.02
2019-05-30T06:06:43.293Z,14.69
2019-05-30T06:09:13.247Z,14.80
2019-05-30T06:11:43.492Z,14.92
2019-05-30T06:14:17.808Z,15.09
2019-05-30T06:16:48.269Z,15.28
2019-05-30T06:19:19.125Z,15.44
2019-05-30T06:21:55.544Z,15.59
2019-05-30T06:24:25.763Z,15.81
2019-05-30T06:26:57.392Z,15.87
2019-05-30T06:29:28.361Z,16.01
2019-05-30T06:31:58.399Z,16.24
2019-05-30T06:34:38.467Z,16.30
2019-05-30T06:37:01.458Z,16.31
2019-05-30T06:39:31.652Z,16.45
2019-05-30T06:42:01.701Z,16.63
2019-05-30T06:44:31.838Z,16.70
2019-05-30T06:47:03.610Z,16.86
2019-05-30T06:49:34.859Z,16.99
2019-05-30T06:52:05.087Z,17.14
2019-05-30T06:54:35.272Z,17.25
2019-05-30T06:57:05.504Z,17.51
2019-05-30T06:59:36.133Z,17.67
2019-05-30T07:02:07.391Z,17.85
2019-05-30T07:04:51.000Z,17.95
2019-05-30T07:07:10.171Z,17.46
2019-05-30T07:09:40.515Z,18.13
2019-05-30T07:12:12.048Z,18.14
2019-05-30T07:14:42.502Z,18.25
2019-05-30T07:17:16.578Z,18.38
2019-05-30T07:19:46.516Z,18.52
2019-05-30T07:22:19.353Z,18.06
2019-05-30T07:24:49.718Z,18.81
2019-05-30T07:27:19.729Z,19.01
2019-05-30T07:29:49.774Z,19.18
2019-05-30T07:32:20.439Z,19.19
2019-05-30T07:35:05.622Z,19.29
2019-05-30T07:37:24.365Z,19.37
2019-05-30T07:39:58.820Z,19.27
2019-05-30T07:42:29.213Z,19.44
2019-05-30T07:45:01.362Z,19.43
2019-05-30T07:47:38.585Z,19.57
2019-05-30T07:50:12.439Z,19.66
2019-05-30T07:52:43.012Z,19.75
2019-05-30T07:55:13.305Z,19.75
2019-05-30T07:57:44.814Z,19.65
2019-05-30T08:00:18.523Z,19.65
2019-05-30T08:02:49.044Z,19.76
2019-05-30T08:05:24.702Z,19.89
2019-05-30T08:07:52.341Z,20.09
2019-05-30T08:10:23.020Z,20.32
2019-05-30T08:12:55.221Z,20.55
2019-05-30T08:15:27.344Z,20.35
2019-05-30T08:17:58.839Z,20.28
2019-05-30T08:20:31.751Z,20.49
2019-05-30T08:23:01.779Z,20.58
2019-05-30T08:25:36.594Z,20.67
2019-05-30T08:28:08.255Z,20.64
2019-05-30T08:30:42.582Z,20.81
2019-05-30T08:33:13.282Z,20.91
2019-05-30T08:35:49.807Z,20.90
2019-05-30T08:38:15.828Z,21.07
2019-05-30T08:40:47.395Z,21.25
2019-05-30T08:43:21.959Z,21.35
2019-05-30T08:45:53.985Z,21.27
2019-05-30T08:48:25.692Z,21.41
2019-05-30T08:51:04.153Z,21.35
2019-05-30T08:53:36.545Z,21.37
2019-05-30T08:56:07.278Z,21.49
2019-05-30T08:58:39.429Z,21.48
2019-05-30T09:01:09.767Z,21.59
2019-05-30T09:03:44.164Z,21.40
2019-05-30T09:06:20.563Z,21.12
2019-05-30T09:08:52.606Z,20.86
2019-05-30T09:11:23.571Z,20.87
2019-05-30T09:13:59.845Z,21.06
2019-05-30T09:16:30.174Z,21.15
2019-05-30T09:19:00.653Z,21.14
2019-05-30T09:21:32.579Z,21.35
2019-05-30T09:24:07.994Z,21.36
2019-05-30T09:26:44.220Z,21.13
2019-05-30T09:29:15.177Z,21.35
2019-05-30T09:31:46.688Z,21.45
2019-05-30T09:34:23.968Z,21.39
2019-05-30T09:36:55.207Z,21.38
2019-05-30T09:39:29.730Z,21.40
2019-05-30T09:42:01.108Z,21.58
2019-05-30T09:44:33.931Z,21.92
2019-05-30T09:47:07.038Z,22.10
2019-05-30T09:49:38.353Z,21.94
2019-05-30T09:52:09.148Z,22.15
2019-05-30T09:54:42.676Z,22.32
2019-05-30T09:57:16.529Z,22.31
2019-05-30T09:59:48.575Z,22.46
2019-05-30T10:02:18.914Z,22.53
2019-05-30T10:04:50.430Z,22.60
2019-05-30T10:07:25.247Z,22.62
2019-05-30T10:09:55.859Z,22.70
2019-05-30T10:12:31.501Z,22.67
2019-05-30T10:15:03.026Z,22.46
2019-05-30T10:17:33.823Z,22.55
2019-05-30T10:20:07.940Z,22.52
2019-05-30T10:22:42.888Z,21.85
2019-05-30T10:25:13.818Z,22.56
2019-05-30T10:27:46.252Z,22.57
2019-05-30T10:30:19.127Z,22.57
2019-05-30T10:32:51.576Z,22.32
2019-05-30T10:35:29.828Z,22.59
2019-05-30T10:38:02.085Z,22.78
2019-05-30T10:40:32.339Z,23.14
2019-05-30T10:43:08.289Z,23.57
2019-05-30T10:45:42.568Z,23.84
2019-05-30T10:48:13.996Z,24.04
2019-05-30T10:50:44.081Z,23.48
2019-05-30T10:53:14.803Z,23.36
2019-05-30T10:55:45.294Z,23.12
2019-05-30T10:58:16.812Z,23.11
2019-05-30T11:00:53.873Z,23.03
2019-05-30T11:03:27.479Z,23.02
2019-05-30T11:06:16.297Z,23.11
2019-05-30T11:08:49.175Z,22.88
2019-05-30T11:11:26.444Z,23.13
2019-05-30T11:13:57.955Z,23.44
2019-05-30T11:16:30.713Z,23.60
2019-05-30T11:19:07.065Z,23.81
2019-05-30T11:21:37.809Z,23.99
2019-05-30T11:24:08.471Z,23.96
2019-05-30T11:26:40.924Z,24.19
2019-05-30T11:29:11.790Z,23.99
2019-05-30T11:31:41.706Z,23.82
2019-05-30T11:34:12.689Z,23.77
2019-05-30T11:36:42.826Z,23.58
2019-05-30T11:39:18.720Z,23.32
2019-05-30T11:41:49.457Z,23.04
2019-05-30T11:44:23.299Z,22.67
2019-05-30T11:47:01.372Z,23.30
2019-05-30T11:49:31.768Z,23.53
2019-05-30T11:52:03.523Z,23.87
2019-05-30T11:54:34.023Z,23.53
2019-05-30T11:57:04.215Z,24.10
2019-05-30T11:59:34.195Z,24.11
2019-05-30T12:02:04.689Z,24.21
2019-05-30T12:04:36.838Z,24.27
2019-05-30T12:07:09.492Z,24.47
2019-05-30T12:09:41.185Z,24.56
2019-05-30T12:12:12.468Z,24.54
2019-05-30T12:14:42.985Z,24.36
2019-05-30T12:17:14.392Z,24.60
2019-05-30T12:19:44.947Z,24.76
2019-05-30T12:22:15.496Z,24.43
2019-05-30T12:24:48.798Z,24.74
2019-05-30T12:27:19.097Z,24.74
2019-05-30T12:29:49.548Z,24.86
2019-05-30T12:32:20.774Z,25.11
2019-05-30T12:34:54.360Z,25.48
2019-05-30T12:37:26.599Z,25.65
2019-05-30T12:39:58.580Z,25.51
2019-05-30T12:42:29.635Z,25.59
2019-05-30T12:45:05.407Z,25.68
2019-05-30T12:47:34.163Z,25.95
2019-05-30T12:50:07.545Z,25.69
2019-05-30T12:52:38.231Z,25.52
2019-05-30T12:55:15.678Z,25.38
2019-05-30T12:57:47.324Z,25.30
2019-05-30T13:00:20.470Z,25.31
2019-05-30T13:02:53.306Z,25.51
2019-05-30T13:05:27.914Z,25.41
2019-05-30T13:08:17.620Z,25.46
2019-05-30T13:10:40.054Z,25.89
2019-05-30T13:13:10.185Z,26.05
2019-05-30T13:15:40.437Z,26.29
2019-05-30T13:18:12.960Z,26.07
2019-05-30T13:20:44.125Z,26.06
2019-05-30T13:23:19.911Z,26.34
2019-05-30T13:25:51.397Z,26.38
2019-05-30T13:28:23.729Z,26.52
2019-05-30T13:30:56.166Z,26.69
2019-05-30T13:33:28.548Z,26.66
2019-05-30T13:36:03.142Z,26.55
2019-05-30T13:38:33.224Z,26.49
2019-05-30T13:41:05.652Z,26.70
2019-05-30T13:43:36.442Z,26.64
2019-05-30T13:46:08.472Z,26.96
2019-05-30T13:48:39.312Z,26.86
2019-05-30T13:51:09.819Z,26.85
2019-05-30T13:53:40.454Z,26.83
2019-05-30T13:56:11.095Z,26.85
2019-05-30T13:58:42.428Z,26.58
2019-05-30T14:01:14.111Z,26.44
2019-05-30T14:03:44.997Z,26.47
2019-05-30T14:06:20.063Z,26.12
2019-05-30T14:08:50.808Z,26.31
2019-05-30T14:11:23.535Z,26.32
2019-05-30T14:13:59.012Z,26.66
2019-05-30T14:16:31.073Z,26.87
2019-05-30T14:19:10.815Z,26.67
2019-05-30T14:21:40.246Z,26.45
2019-05-30T14:24:13.653Z,26.39
2019-05-30T14:26:44.296Z,25.92
2019-05-30T14:29:14.297Z,26.44
2019-05-30T14:31:44.680Z,26.08
2019-05-30T14:34:14.634Z,25.73
2019-05-30T14:36:44.697Z,25.96
2019-05-30T14:39:18.281Z,25.95
2019-05-30T14:41:49.795Z,26.00
2019-05-30T14:44:19.962Z,26.29
2019-05-30T14:46:54.603Z,26.25
2019-05-30T14:49:25.422Z,26.55
2019-05-30T14:51:56.368Z,26.78
2019-05-30T14:54:30.858Z,26.73
2019-05-30T14:57:02.069Z,26.77
2019-05-30T14:59:32.294Z,26.63
2019-05-30T15:02:02.672Z,26.32
2019-05-30T15:04:32.625Z,25.93
2019-05-30T15:07:03.537Z,25.43
2019-05-30T15:09:33.859Z,25.41
2019-05-30T15:12:08.730Z,25.26
2019-05-30T15:14:42.112Z,24.94
2019-05-30T15:17:12.688Z,25.05
2019-05-30T15:19:43.927Z,25.07
2019-05-30T15:22:17.122Z,25.04
2019-05-30T15:24:48.702Z,24.11
2019-05-30T15:27:21.785Z,24.31
2019-05-30T15:29:54.723Z,24.42
2019-05-30T15:32:29.539Z,24.26
2019-05-30T15:35:04.787Z,24.65
2019-05-30T15:37:36.388Z,24.26
2019-05-30T15:40:09.527Z,24.29
2019-05-30T15:42:40.829Z,24.47
2019-05-30T15:45:13.932Z,24.27
2019-05-30T15:47:44.684Z,24.16
2019-05-30T15:50:16.995Z,23.94
2019-05-30T15:52:47.274Z,23.71
2019-05-30T15:55:23.260Z,23.67
2019-05-30T15:57:54.464Z,23.65
2019-05-30T16:00:26.731Z,23.38
2019-05-30T16:02:58.503Z,23.26
2019-05-30T16:05:28.890Z,23.16
2019-05-30T16:08:01.866Z,23.29
2019-05-30T16:10:32.041Z,22.96
2019-05-30T16:13:03.179Z,23.12
2019-05-30T16:15:44.511Z,22.37
2019-05-30T16:18:15.688Z,22.77
2019-05-30T16:20:46.427Z,22.81
2019-05-30T16:23:20.746Z,22.92
2019-05-30T16:25:51.707Z,23.07
2019-05-30T16:28:23.857Z,23.09
2019-05-30T16:30:54.246Z,23.00
2019-05-30T16:33:27.430Z,22.94
2019-05-30T16:35:59.201Z,22.99
2019-05-30T16:38:32.420Z,22.85
2019-05-30T16:41:03.183Z,22.20
2019-05-30T16:43:38.038Z,22.64
2019-05-30T16:46:12.768Z,22.65
2019-05-30T16:48:44.000Z,22.60
2019-05-30T16:51:14.732Z,22.66
2019-05-30T16:53:48.656Z,22.33
2019-05-30T16:56:19.614Z,22.03
2019-05-30T16:58:49.889Z,21.97
2019-05-30T17:01:23.996Z,21.88
2019-05-30T17:04:02.170Z,21.76
2019-05-30T17:06:33.604Z,21.85
2019-05-30T17:09:09.809Z,21.98
2019-05-30T17:11:41.750Z,22.04
2019-05-30T17:14:11.762Z,21.51
2019-05-30T17:16:48.290Z,21.93
2019-05-30T17:19:22.357Z,21.53
2019-05-30T17:22:16.906Z,21.88
2019-05-30T17:24:48.595Z,21.80
2019-05-30T17:27:24.301Z,21.76
2019-05-30T17:29:58.042Z,21.80
2019-05-30T17:32:34.836Z,21.81
2019-05-30T17:35:09.388Z,21.81
2019-05-30T17:37:40.824Z,21.93
2019-05-30T17:40:13.066Z,21.86
2019-05-30T17:42:43.879Z,21.93
2019-05-30T17:45:19.032Z,21.35
2019-05-30T17:47:59.554Z,21.40
2019-05-30T17:50:23.842Z,21.92
2019-05-30T17:52:54.338Z,21.94
2019-05-30T17:55:25.989Z,21.98
2019-05-30T17:57:56.655Z,21.93
2019-05-30T18:00:30.730Z,21.82
2019-05-30T18:03:02.075Z,21.84
2019-05-30T18:05:36.823Z,21.84
2019-05-30T18:08:05.020Z,21.81
2019-05-30T18:10:36.382Z,21.66
2019-05-30T18:13:07.497Z,21.65
2019-05-30T18:15:49.046Z,21.52
2019-05-30T18:18:17.896Z,21.52
2019-05-30T18:20:51.594Z,21.55
2019-05-30T18:23:23.666Z,21.52
2019-05-30T18:25:55.656Z,21.49
2019-05-30T18:28:32.035Z,21.51
2019-05-30T18:31:08.822Z,21.46
2019-05-30T18:33:40.250Z,21.42
2019-05-30T18:36:14.191Z,20.81
2019-05-30T18:38:46.142Z,20.79
2019-05-30T18:41:22.629Z,21.26
2019-05-30T18:43:53.092Z,21.16
2019-05-30T18:46:33.197Z,21.13
2019-05-30T18:49:07.536Z,21.05
2019-05-30T18:51:40.336Z,21.05
2019-05-30T18:54:10.897Z,21.03
2019-05-30T18:56:47.686Z,21.06
2019-05-30T18:59:26.924Z,20.78
2019-05-30T19:02:05.072Z,21.02
2019-05-30T19:04:36.399Z,20.53
2019-05-30T19:07:12.042Z,20.00
2019-05-30T19:09:42.999Z,20.81
2019-05-30T19:12:24.256Z,20.61
2019-05-30T19:14:56.200Z,20.59
2019-05-30T19:17:31.811Z,20.49
2019-05-30T19:20:06.724Z,19.89
2019-05-30T19:22:37.173Z,20.35
2019-05-30T19:25:08.605Z,20.30
2019-05-30T19:27:39.324Z,20.23
2019-05-30T19:30:12.926Z,20.15
2019-05-30T19:32:44.534Z,20.05
2019-05-30T19:35:16.483Z,19.97
2019-05-30T19:37:47.906Z,19.38
2019-05-30T19:40:24.870Z,19.90
2019-05-30T19:42:58.302Z,19.87
2019-05-30T19:45:29.947Z,19.88
2019-05-30T19:48:01.722Z,19.85
2019-05-30T19:50:34.817Z,19.86
2019-05-30T19:53:16.263Z,19.84
2019-05-30T19:55:47.456Z,19.82
2019-05-30T19:58:21.970Z,19.77
2019-05-30T20:00:58.654Z,19.78
2019-05-30T20:03:37.570Z,19.81
2019-05-30T20:06:04.667Z,19.30
2019-05-30T20:08:52.547Z,19.75
2019-05-30T20:11:10.139Z,19.13
2019-05-30T20:13:46.290Z,19.73
2019-05-30T20:16:17.113Z,19.67
2019-05-30T20:18:49.978Z,19.63
2019-05-30T20:21:22.652Z,19.58
2019-05-30T20:23:59.923Z,19.51
2019-05-30T20:26:40.594Z,19.48
2019-05-30T20:29:10.832Z,19.47
2019-05-30T20:31:41.884Z,19.49
2019-05-30T20:34:13.693Z,19.46
2019-05-30T20:36:44.186Z,19.44
2019-05-30T20:39:14.808Z,19.45
2019-05-30T20:41:47.159Z,19.41
2019-05-30T20:44:18.028Z,18.74
2019-05-30T20:46:51.538Z,19.23
2019-05-30T20:49:24.884Z,19.14
2019-05-30T20:51:59.226Z,18.99
2019-05-30T20:54:35.372Z,18.99
2019-05-30T20:57:13.865Z,18.95
2019-05-30T20:59:44.175Z,18.88
2019-05-30T21:02:17.504Z,18.89
2019-05-30T21:04:53.435Z,18.88
2019-05-30T21:07:53.395Z,18.84
2019-05-30T21:10:28.475Z,18.30
2019-05-30T21:13:06.264Z,18.90
2019-05-30T21:15:39.601Z,18.91
2019-05-30T21:18:12.712Z,18.86
2019-05-30T21:20:46.185Z,18.91
2019-05-30T21:23:18.042Z,18.95
2019-05-30T21:25:48.317Z,18.95
2019-05-30T21:28:20.074Z,18.98
2019-05-30T21:30:53.869Z,19.01
2019-05-30T21:33:24.123Z,18.95
2019-05-30T21:35:55.614Z,18.97
2019-05-30T21:38:29.031Z,18.96
2019-05-30T21:40:59.381Z,18.96
2019-05-30T21:43:29.860Z,18.97
2019-05-30T21:46:05.831Z,18.98
2019-05-30T21:48:42.897Z,19.03
2019-05-30T21:51:17.658Z,18.72
2019-05-30T21:53:50.877Z,19.10
2019-05-30T21:56:28.747Z,19.14
2019-05-30T21:59:03.057Z,19.13
2019-05-30T22:01:48.754Z,18.54
2019-05-30T22:04:21.275Z,18.53
2019-05-30T22:06:53.027Z,19.02
2019-05-30T22:09:24.427Z,19.04
2019-05-30T22:11:55.347Z,19.02
2019-05-30T22:14:28.948Z,19.01
2019-05-30T22:17:01.020Z,19.05
2019-05-30T22:19:33.035Z,19.12
2019-05-30T22:22:03.864Z,19.02
2019-05-30T22:24:37.109Z,18.47
2019-05-30T22:27:19.535Z,19.09
2019-05-30T22:29:50.698Z,19.07
2019-05-30T22:32:25.337Z,19.04
2019-05-30T22:34:56.218Z,19.07
2019-05-30T22:37:27.286Z,19.11
2019-05-30T22:39:58.510Z,19.16
2019-05-30T22:42:31.735Z,19.11
2019-05-30T22:45:05.015Z,18.40
2019-05-30T22:47:40.214Z,19.07
2019-05-30T22:50:12.918Z,19.02
2019-05-30T22:52:48.825Z,19.04
2019-05-30T22:55:21.755Z,18.99
2019-05-30T22:57:54.507Z,19.01
2019-05-30T23:00:27.374Z,19.06
2019-05-30T23:02:59.887Z,19.05
2019-05-30T23:05:31.601Z,19.06
2019-05-30T23:08:03.681Z,19.05
2019-05-30T23:10:45.515Z,19.05
2019-05-30T23:13:16.799Z,19.05
2019-05-30T23:15:48.553Z,19.02
2019-05-30T23:18:19.822Z,19.01
2019-05-30T23:24:30.683Z,19.00
2019-05-30T23:27:01.322Z,18.91
2019-05-30T23:29:31.871Z,18.88
2019-05-30T23:32:04.060Z,18.91
2019-05-30T23:34:35.461Z,18.96
2019-05-30T23:37:06.832Z,18.96
2019-05-30T23:39:36.762Z,18.96
2019-05-30T23:42:12.226Z,18.95
2019-05-30T23:44:42.753Z,18.95
2019-05-30T23:47:19.543Z,18.92
2019-05-30T23:49:51.751Z,18.91
2019-05-30T23:52:21.946Z,18.89
2019-05-30T23:54:54.164Z,18.85
2019-05-30T23:57:26.217Z,18.86
2019-05-30T23:59:58.838Z,18.82
